AFL1192 UUEE-UWKD
Flight info
| Callsign | AFL1192 |
|---|---|
| Flight time | 1h 16m |
| Altitude | 33000 |
| Route | KOGOM3J KOGOM L94 EKPIR M864 INKEB L94 UNORO T788 KOROM KOROM1R |
| Aircraft | A320/M-SDE3FGHIRWY/LB1 |
Departure
| Time | 2026-05-06 09:54 |
|---|---|
| Airport | Sheremetyevo International Airport (UUEE) |
Arrival
| Time | 2026-05-06 11:10 |
|---|---|
| Airport | Kazan International Airport (UWKD) |
| Time | Latitude | Longitude | Altitude | Speed | Heading |
|---|---|---|---|---|---|
| 2026-05-06 09:47 | 55.97721 | 37.41826 | 643 ft | 0 kts | 75° |
| 2026-05-06 09:49 | 55.97724 | 37.41844 | 644 ft | 4 kts | 75° |
| 2026-05-06 09:49 | 55.97739 | 37.41947 | 643 ft | 11 kts | 75° |
| 2026-05-06 09:49 | 55.97751 | 37.42062 | 639 ft | 8 kts | 96° |
| 2026-05-06 09:50 | 55.97716 | 37.42121 | 639 ft | 6 kts | 158° |
| 2026-05-06 09:50 | 55.97687 | 37.42163 | 643 ft | 5 kts | 123° |
| 2026-05-06 09:50 | 55.97689 | 37.42212 | 641 ft | 4 kts | 76° |
| 2026-05-06 09:50 | 55.97697 | 37.42271 | 641 ft | 7 kts | 75° |
| 2026-05-06 09:51 | 55.97716 | 37.42393 | 640 ft | 12 kts | 74° |
| 2026-05-06 09:51 | 55.97737 | 37.42523 | 645 ft | 10 kts | 74° |
| 2026-05-06 09:51 | 55.97755 | 37.42639 | 641 ft | 9 kts | 74° |
| 2026-05-06 09:51 | 55.97771 | 37.42741 | 641 ft | 8 kts | 74° |
| 2026-05-06 09:52 | 55.97749 | 37.42795 | 646 ft | 6 kts | 171° |
| 2026-05-06 09:52 | 55.97712 | 37.42807 | 642 ft | 6 kts | 168° |
| 2026-05-06 09:52 | 55.97663 | 37.42830 | 638 ft | 7 kts | 165° |
| 2026-05-06 09:52 | 55.97618 | 37.42848 | 644 ft | 6 kts | 179° |
| 2026-05-06 09:53 | 55.97601 | 37.42814 | 639 ft | 3 kts | 257° |
| 2026-05-06 09:53 | 55.97584 | 37.42705 | 644 ft | 31 kts | 255° |
| 2026-05-06 09:53 | 55.97463 | 37.41897 | 639 ft | 101 kts | 254° |
| 2026-05-06 09:53 | 55.97231 | 37.40355 | 642 ft | 154 kts | 254° |
| 2026-05-06 09:54 | 55.96960 | 37.38495 | 1220 ft | 156 kts | 255° |
| 2026-05-06 09:54 | 55.96670 | 37.36644 | 2034 ft | 154 kts | 255° |
| 2026-05-06 09:54 | 55.96379 | 37.34821 | 2809 ft | 152 kts | 253° |
| 2026-05-06 09:54 | 55.96090 | 37.33013 | 3534 ft | 151 kts | 257° |
| 2026-05-06 09:55 | 55.95803 | 37.31190 | 4219 ft | 158 kts | 256° |
| 2026-05-06 09:55 | 55.95485 | 37.29178 | 4565 ft | 179 kts | 256° |
| 2026-05-06 09:55 | 55.95126 | 37.26897 | 4846 ft | 202 kts | 256° |
| 2026-05-06 09:55 | 55.94721 | 37.24329 | 5188 ft | 228 kts | 255° |
| 2026-05-06 09:56 | 55.94271 | 37.21471 | 5782 ft | 246 kts | 256° |
| 2026-05-06 09:56 | 55.93801 | 37.18504 | 6695 ft | 250 kts | 255° |
| 2026-05-06 09:56 | 55.93324 | 37.15522 | 7644 ft | 251 kts | 256° |
| 2026-05-06 09:56 | 55.92846 | 37.12519 | 8581 ft | 252 kts | 256° |
| 2026-05-06 09:57 | 55.92369 | 37.09502 | 9512 ft | 255 kts | 255° |
| 2026-05-06 09:57 | 55.91884 | 37.06427 | 9802 ft | 257 kts | 256° |
| 2026-05-06 09:57 | 55.91686 | 37.03342 | 9860 ft | 255 kts | 274° |
| 2026-05-06 09:57 | 55.92184 | 37.00272 | 9872 ft | 259 kts | 295° |
| 2026-05-06 09:58 | 55.93332 | 36.97765 | 9875 ft | 268 kts | 315° |
| 2026-05-06 09:58 | 55.94850 | 36.95859 | 9874 ft | 271 kts | 319° |
| 2026-05-06 09:58 | 55.96403 | 36.93962 | 9871 ft | 272 kts | 321° |
| 2026-05-06 09:58 | 55.98159 | 36.92586 | 9874 ft | 282 kts | 340° |
| 2026-05-06 09:59 | 56.00153 | 36.92352 | 9890 ft | 297 kts | 1° |
| 2026-05-06 09:59 | 56.02178 | 36.93533 | 10534 ft | 315 kts | 23° |
| 2026-05-06 09:59 | 56.04051 | 36.95621 | 11392 ft | 318 kts | 27° |
| 2026-05-06 09:59 | 56.05919 | 36.97781 | 12203 ft | 321 kts | 28° |
| 2026-05-06 10:00 | 56.07802 | 36.99978 | 13010 ft | 325 kts | 28° |
| 2026-05-06 10:00 | 56.09671 | 37.02313 | 13666 ft | 333 kts | 36° |
| 2026-05-06 10:00 | 56.11275 | 37.05354 | 13834 ft | 339 kts | 51° |
| 2026-05-06 10:00 | 56.12444 | 37.09111 | 13935 ft | 357 kts | 67° |
| 2026-05-06 10:01 | 56.13141 | 37.13462 | 14418 ft | 368 kts | 75° |
| 2026-05-06 10:01 | 56.13764 | 37.17958 | 14781 ft | 373 kts | 75° |
| 2026-05-06 10:01 | 56.14358 | 37.22487 | 14860 ft | 373 kts | 81° |
| 2026-05-06 10:01 | 56.14394 | 37.27121 | 14870 ft | 372 kts | 99° |
| 2026-05-06 10:02 | 56.13693 | 37.31530 | 14867 ft | 368 kts | 118° |
| 2026-05-06 10:02 | 56.12307 | 37.35344 | 15130 ft | 364 kts | 137° |
| 2026-05-06 10:02 | 56.10412 | 37.38274 | 15855 ft | 358 kts | 152° |
| 2026-05-06 10:02 | 56.08213 | 37.40344 | 16543 ft | 357 kts | 160° |
| 2026-05-06 10:03 | 56.05963 | 37.42256 | 17228 ft | 359 kts | 160° |
| 2026-05-06 10:03 | 56.03713 | 37.44141 | 17880 ft | 362 kts | 160° |
| 2026-05-06 10:03 | 56.01416 | 37.46053 | 18485 ft | 366 kts | 160° |
| 2026-05-06 10:03 | 55.99102 | 37.47981 | 19045 ft | 369 kts | 159° |
| 2026-05-06 10:04 | 55.96899 | 37.50440 | 19588 ft | 379 kts | 144° |
| 2026-05-06 10:04 | 55.95040 | 37.53853 | 19821 ft | 387 kts | 129° |
| 2026-05-06 10:04 | 55.93718 | 37.58079 | 20245 ft | 395 kts | 113° |
| 2026-05-06 10:04 | 55.92970 | 37.62822 | 20799 ft | 400 kts | 102° |
| 2026-05-06 10:05 | 55.92438 | 37.67711 | 21351 ft | 403 kts | 102° |
| 2026-05-06 10:05 | 55.91805 | 37.72594 | 21872 ft | 405 kts | 109° |
| 2026-05-06 10:05 | 55.90742 | 37.77241 | 22403 ft | 406 kts | 120° |
| 2026-05-06 10:05 | 55.89370 | 37.81659 | 22927 ft | 408 kts | 122° |
| 2026-05-06 10:06 | 55.87978 | 37.86099 | 23444 ft | 411 kts | 121° |
| 2026-05-06 10:06 | 55.86582 | 37.90558 | 23878 ft | 414 kts | 121° |
| 2026-05-06 10:06 | 55.85174 | 37.95061 | 24319 ft | 417 kts | 121° |
| 2026-05-06 10:06 | 55.83760 | 37.99574 | 24761 ft | 419 kts | 121° |
| 2026-05-06 10:07 | 55.82336 | 38.04114 | 25200 ft | 421 kts | 121° |
| 2026-05-06 10:07 | 55.81043 | 38.08735 | 25617 ft | 426 kts | 113° |
| 2026-05-06 10:07 | 55.80185 | 38.13778 | 26033 ft | 430 kts | 102° |
| 2026-05-06 10:07 | 55.79820 | 38.19115 | 26201 ft | 440 kts | 91° |
| 2026-05-06 10:08 | 55.79919 | 38.24584 | 26495 ft | 445 kts | 87° |
| 2026-05-06 10:08 | 55.80055 | 38.30028 | 26863 ft | 448 kts | 87° |
| 2026-05-06 10:08 | 55.80182 | 38.35645 | 27258 ft | 450 kts | 87° |
| 2026-05-06 10:08 | 55.80516 | 38.41193 | 27639 ft | 452 kts | 78° |
| 2026-05-06 10:09 | 55.81305 | 38.46609 | 28021 ft | 453 kts | 71° |
| 2026-05-06 10:09 | 55.82275 | 38.51962 | 28395 ft | 456 kts | 71° |
| 2026-05-06 10:09 | 55.83248 | 38.57345 | 28763 ft | 458 kts | 71° |
| 2026-05-06 10:09 | 55.84217 | 38.62740 | 29130 ft | 460 kts | 71° |
| 2026-05-06 10:10 | 55.85192 | 38.68197 | 29495 ft | 463 kts | 71° |
| 2026-05-06 10:10 | 55.86335 | 38.73555 | 29831 ft | 464 kts | 63° |
| 2026-05-06 10:10 | 55.87726 | 38.78748 | 30147 ft | 466 kts | 63° |
| 2026-05-06 10:10 | 55.89123 | 38.83967 | 30435 ft | 468 kts | 63° |
| 2026-05-06 10:11 | 55.90527 | 38.89227 | 30713 ft | 471 kts | 63° |
| 2026-05-06 10:11 | 55.91930 | 38.94511 | 30991 ft | 473 kts | 64° |
| 2026-05-06 10:11 | 55.93336 | 38.99826 | 31271 ft | 475 kts | 64° |
| 2026-05-06 10:11 | 55.94739 | 39.05149 | 31658 ft | 473 kts | 64° |
| 2026-05-06 10:12 | 55.95943 | 39.10613 | 32040 ft | 473 kts | 73° |
| 2026-05-06 10:12 | 55.96695 | 39.16314 | 32412 ft | 472 kts | 82° |
| 2026-05-06 10:12 | 55.97054 | 39.22131 | 32755 ft | 472 kts | 85° |
| 2026-05-06 10:12 | 55.97364 | 39.27935 | 32840 ft | 465 kts | 85° |
| 2026-05-06 10:13 | 55.97655 | 39.33606 | 32841 ft | 454 kts | 86° |
| 2026-05-06 10:13 | 55.97921 | 39.39192 | 32852 ft | 449 kts | 86° |
| 2026-05-06 10:13 | 55.98447 | 39.50281 | 32842 ft | 447 kts | 86° |
| 2026-05-06 10:14 | 55.99024 | 39.61341 | 32844 ft | 447 kts | 82° |
| 2026-05-06 10:14 | 56.00836 | 39.71939 | 32844 ft | 448 kts | 64° |
| 2026-05-06 10:15 | 56.02846 | 39.82343 | 32846 ft | 447 kts | 83° |
| 2026-05-06 10:15 | 56.03075 | 39.93390 | 32843 ft | 445 kts | 91° |
| 2026-05-06 10:16 | 56.03212 | 40.04469 | 32834 ft | 446 kts | 90° |
| 2026-05-06 10:16 | 56.03397 | 40.15549 | 32832 ft | 445 kts | 90° |
| 2026-05-06 10:17 | 56.03553 | 40.26626 | 32833 ft | 445 kts | 90° |
| 2026-05-06 10:17 | 56.03674 | 40.37709 | 32835 ft | 445 kts | 90° |
| 2026-05-06 10:18 | 56.03781 | 40.48785 | 32833 ft | 445 kts | 90° |
| 2026-05-06 10:18 | 56.03882 | 40.59802 | 32841 ft | 445 kts | 90° |
| 2026-05-06 10:19 | 56.03974 | 40.70875 | 32831 ft | 445 kts | 90° |
| 2026-05-06 10:19 | 56.04059 | 40.81946 | 32836 ft | 445 kts | 90° |
| 2026-05-06 10:20 | 56.04135 | 40.93025 | 32828 ft | 445 kts | 90° |
| 2026-05-06 10:20 | 56.04198 | 41.04094 | 32835 ft | 445 kts | 91° |
| 2026-05-06 10:21 | 56.04250 | 41.15168 | 32820 ft | 445 kts | 91° |
| 2026-05-06 10:21 | 56.04293 | 41.26226 | 32815 ft | 445 kts | 91° |
| 2026-05-06 10:22 | 56.04326 | 41.37297 | 32812 ft | 445 kts | 91° |
| 2026-05-06 10:22 | 56.04349 | 41.48360 | 32811 ft | 445 kts | 91° |
| 2026-05-06 10:23 | 56.04362 | 41.59358 | 32810 ft | 445 kts | 91° |
| 2026-05-06 10:23 | 56.04365 | 41.70408 | 32810 ft | 444 kts | 91° |
| 2026-05-06 10:24 | 56.04359 | 41.81461 | 32807 ft | 444 kts | 91° |
| 2026-05-06 10:24 | 56.04343 | 41.92498 | 32804 ft | 444 kts | 91° |
| 2026-05-06 10:25 | 56.04316 | 42.03532 | 32803 ft | 443 kts | 91° |
| 2026-05-06 10:25 | 56.04280 | 42.14555 | 32798 ft | 443 kts | 91° |
| 2026-05-06 10:26 | 56.04234 | 42.25578 | 32797 ft | 443 kts | 91° |
| 2026-05-06 10:26 | 56.04179 | 42.36592 | 32790 ft | 443 kts | 91° |
| 2026-05-06 10:27 | 56.04110 | 42.47620 | 32800 ft | 443 kts | 91° |
| 2026-05-06 10:27 | 56.04028 | 42.58542 | 32792 ft | 442 kts | 92° |
| 2026-05-06 10:28 | 56.03898 | 42.69543 | 32791 ft | 442 kts | 92° |
| 2026-05-06 10:28 | 56.03744 | 42.80544 | 32790 ft | 442 kts | 92° |
| 2026-05-06 10:29 | 56.03586 | 42.91518 | 32792 ft | 442 kts | 92° |
| 2026-05-06 10:29 | 56.03425 | 43.02501 | 32791 ft | 441 kts | 92° |
| 2026-05-06 10:30 | 56.03256 | 43.13471 | 32796 ft | 441 kts | 92° |
| 2026-05-06 10:30 | 56.03072 | 43.24428 | 32796 ft | 441 kts | 92° |
| 2026-05-06 10:31 | 56.03027 | 43.35388 | 32796 ft | 441 kts | 84° |
| 2026-05-06 10:31 | 56.03774 | 43.46259 | 32799 ft | 440 kts | 83° |
| 2026-05-06 10:32 | 56.04517 | 43.57139 | 32801 ft | 440 kts | 83° |
| 2026-05-06 10:32 | 56.05243 | 43.68008 | 32796 ft | 440 kts | 83° |
| 2026-05-06 10:33 | 56.05958 | 43.78870 | 32796 ft | 440 kts | 83° |
| 2026-05-06 10:33 | 56.06668 | 43.89752 | 32792 ft | 439 kts | 83° |
| 2026-05-06 10:34 | 56.07363 | 44.00556 | 32787 ft | 440 kts | 83° |
| 2026-05-06 10:34 | 56.08053 | 44.11439 | 32789 ft | 441 kts | 83° |
| 2026-05-06 10:35 | 56.08626 | 44.20593 | 32788 ft | 441 kts | 83° |
| 2026-05-06 10:35 | 56.09299 | 44.31503 | 32789 ft | 441 kts | 83° |
| 2026-05-06 10:36 | 56.09963 | 44.42415 | 32792 ft | 441 kts | 84° |
| 2026-05-06 10:36 | 56.10617 | 44.53350 | 32791 ft | 441 kts | 84° |
| 2026-05-06 10:37 | 56.11248 | 44.64276 | 32796 ft | 441 kts | 86° |
| 2026-05-06 10:37 | 56.11149 | 44.75240 | 32805 ft | 440 kts | 92° |
| 2026-05-06 10:38 | 56.10927 | 44.86196 | 32800 ft | 440 kts | 92° |
| 2026-05-06 10:38 | 56.10697 | 44.97089 | 32802 ft | 440 kts | 92° |
| 2026-05-06 10:39 | 56.10455 | 45.08031 | 32813 ft | 440 kts | 92° |
| 2026-05-06 10:39 | 56.10195 | 45.18987 | 32806 ft | 440 kts | 92° |
| 2026-05-06 10:40 | 56.09936 | 45.29918 | 32810 ft | 439 kts | 92° |
| 2026-05-06 10:40 | 56.09672 | 45.40858 | 32814 ft | 439 kts | 92° |
| 2026-05-06 10:41 | 56.09396 | 45.51784 | 32816 ft | 439 kts | 93° |
| 2026-05-06 10:41 | 56.09109 | 45.62696 | 32816 ft | 439 kts | 93° |
| 2026-05-06 10:42 | 56.08811 | 45.73634 | 32819 ft | 439 kts | 93° |
| 2026-05-06 10:42 | 56.08504 | 45.84542 | 32821 ft | 438 kts | 93° |
| 2026-05-06 10:43 | 56.08189 | 45.95437 | 32826 ft | 438 kts | 93° |
| 2026-05-06 10:44 | 56.07700 | 46.11711 | 32826 ft | 438 kts | 93° |
| 2026-05-06 10:44 | 56.07361 | 46.22599 | 32834 ft | 438 kts | 93° |
| 2026-05-06 10:45 | 56.07012 | 46.33490 | 32828 ft | 438 kts | 93° |
| 2026-05-06 10:45 | 56.06832 | 46.38919 | 32666 ft | 437 kts | 94° |
| 2026-05-06 10:45 | 56.06651 | 46.44331 | 32406 ft | 434 kts | 94° |
| 2026-05-06 10:45 | 56.06407 | 46.49695 | 32139 ft | 432 kts | 99° |
| 2026-05-06 10:46 | 56.05725 | 46.54904 | 31879 ft | 429 kts | 110° |
| 2026-05-06 10:46 | 56.04679 | 46.59892 | 31623 ft | 428 kts | 112° |
| 2026-05-06 10:46 | 56.03616 | 46.64850 | 31367 ft | 426 kts | 112° |
| 2026-05-06 10:46 | 56.02558 | 46.69789 | 31111 ft | 425 kts | 112° |
| 2026-05-06 10:47 | 56.01503 | 46.74715 | 30861 ft | 423 kts | 112° |
| 2026-05-06 10:47 | 56.00451 | 46.79621 | 30609 ft | 422 kts | 112° |
| 2026-05-06 10:47 | 55.99397 | 46.84524 | 30358 ft | 421 kts | 112° |
| 2026-05-06 10:47 | 55.98347 | 46.89395 | 30115 ft | 419 kts | 112° |
| 2026-05-06 10:48 | 55.97298 | 46.94245 | 29867 ft | 418 kts | 112° |
| 2026-05-06 10:48 | 55.96251 | 46.99073 | 29585 ft | 416 kts | 112° |
| 2026-05-06 10:48 | 55.95205 | 47.03880 | 29299 ft | 415 kts | 112° |
| 2026-05-06 10:48 | 55.94162 | 47.08659 | 29013 ft | 413 kts | 112° |
| 2026-05-06 10:49 | 55.93121 | 47.13416 | 28735 ft | 411 kts | 112° |
| 2026-05-06 10:49 | 55.92082 | 47.18153 | 28459 ft | 409 kts | 112° |
| 2026-05-06 10:49 | 55.91049 | 47.22863 | 28186 ft | 407 kts | 112° |
| 2026-05-06 10:49 | 55.90019 | 47.27554 | 27915 ft | 406 kts | 112° |
| 2026-05-06 10:50 | 55.88990 | 47.32229 | 27648 ft | 404 kts | 112° |
| 2026-05-06 10:50 | 55.87963 | 47.36883 | 27376 ft | 402 kts | 112° |
| 2026-05-06 10:50 | 55.86954 | 47.41445 | 27113 ft | 400 kts | 112° |
| 2026-05-06 10:50 | 55.85934 | 47.46044 | 26860 ft | 397 kts | 112° |
| 2026-05-06 10:51 | 55.84923 | 47.50590 | 26482 ft | 393 kts | 112° |
| 2026-05-06 10:51 | 55.83920 | 47.55093 | 26031 ft | 390 kts | 112° |
| 2026-05-06 10:51 | 55.82920 | 47.59569 | 25588 ft | 388 kts | 112° |
| 2026-05-06 10:51 | 55.81924 | 47.64017 | 25141 ft | 387 kts | 112° |
| 2026-05-06 10:52 | 55.80930 | 47.68448 | 24674 ft | 385 kts | 112° |
| 2026-05-06 10:52 | 55.79935 | 47.72868 | 24201 ft | 385 kts | 112° |
| 2026-05-06 10:52 | 55.78941 | 47.77272 | 23728 ft | 384 kts | 112° |
| 2026-05-06 10:52 | 55.77943 | 47.81692 | 23219 ft | 384 kts | 112° |
| 2026-05-06 10:53 | 55.76951 | 47.86082 | 22729 ft | 382 kts | 112° |
| 2026-05-06 10:53 | 55.75963 | 47.90452 | 22270 ft | 380 kts | 112° |
| 2026-05-06 10:53 | 55.74984 | 47.94776 | 21802 ft | 378 kts | 112° |
| 2026-05-06 10:53 | 55.74001 | 47.99099 | 21359 ft | 377 kts | 112° |
| 2026-05-06 10:54 | 55.73022 | 48.03398 | 20913 ft | 375 kts | 112° |
| 2026-05-06 10:54 | 55.72044 | 48.07683 | 20465 ft | 374 kts | 112° |
| 2026-05-06 10:54 | 55.71067 | 48.11951 | 20019 ft | 373 kts | 112° |
| 2026-05-06 10:54 | 55.70091 | 48.16209 | 19580 ft | 372 kts | 112° |
| 2026-05-06 10:55 | 55.69118 | 48.20444 | 19148 ft | 371 kts | 112° |
| 2026-05-06 10:55 | 55.68145 | 48.24669 | 18705 ft | 370 kts | 112° |
| 2026-05-06 10:55 | 55.67174 | 48.28881 | 18267 ft | 369 kts | 112° |
| 2026-05-06 10:55 | 55.66203 | 48.33082 | 17801 ft | 368 kts | 112° |
| 2026-05-06 10:56 | 55.65234 | 48.37262 | 17369 ft | 365 kts | 113° |
| 2026-05-06 10:56 | 55.64272 | 48.41398 | 16944 ft | 362 kts | 113° |
| 2026-05-06 10:56 | 55.63315 | 48.45509 | 16520 ft | 360 kts | 113° |
| 2026-05-06 10:56 | 55.62298 | 48.49487 | 16119 ft | 358 kts | 120° |
| 2026-05-06 10:57 | 55.61043 | 48.53273 | 15711 ft | 355 kts | 121° |
| 2026-05-06 10:57 | 55.59792 | 48.57022 | 15347 ft | 353 kts | 121° |
| 2026-05-06 10:57 | 55.58548 | 48.60752 | 14944 ft | 351 kts | 121° |
| 2026-05-06 10:57 | 55.57309 | 48.64461 | 14571 ft | 349 kts | 122° |
| 2026-05-06 10:58 | 55.56076 | 48.68149 | 14196 ft | 348 kts | 121° |
| 2026-05-06 10:58 | 55.54850 | 48.71808 | 13818 ft | 347 kts | 122° |
| 2026-05-06 10:58 | 55.53627 | 48.75454 | 13538 ft | 342 kts | 122° |
| 2026-05-06 10:58 | 55.52414 | 48.79063 | 13116 ft | 341 kts | 122° |
| 2026-05-06 10:59 | 55.51205 | 48.82656 | 12695 ft | 339 kts | 122° |
| 2026-05-06 10:59 | 55.50012 | 48.86194 | 12124 ft | 332 kts | 122° |
| 2026-05-06 10:59 | 55.48851 | 48.89637 | 11721 ft | 320 kts | 122° |
| 2026-05-06 10:59 | 55.47734 | 48.92943 | 11337 ft | 309 kts | 122° |
| 2026-05-06 11:00 | 55.46651 | 48.96138 | 10978 ft | 299 kts | 122° |
| 2026-05-06 11:00 | 55.45599 | 48.99236 | 10602 ft | 290 kts | 122° |
| 2026-05-06 11:00 | 55.44574 | 49.02254 | 10232 ft | 283 kts | 122° |
| 2026-05-06 11:00 | 55.43571 | 49.05207 | 9879 ft | 280 kts | 123° |
| 2026-05-06 11:01 | 55.42570 | 49.08148 | 9478 ft | 282 kts | 122° |
| 2026-05-06 11:01 | 55.41559 | 49.11112 | 9077 ft | 282 kts | 123° |
| 2026-05-06 11:01 | 55.40551 | 49.14066 | 8694 ft | 282 kts | 123° |
| 2026-05-06 11:01 | 55.39537 | 49.17030 | 8289 ft | 282 kts | 123° |
| 2026-05-06 11:02 | 55.38522 | 49.19990 | 7885 ft | 283 kts | 123° |
| 2026-05-06 11:02 | 55.37505 | 49.22956 | 7466 ft | 283 kts | 123° |
| 2026-05-06 11:02 | 55.36501 | 49.25884 | 7045 ft | 275 kts | 123° |
| 2026-05-06 11:02 | 55.35609 | 49.28792 | 6637 ft | 267 kts | 110° |
| 2026-05-06 11:03 | 55.35398 | 49.31973 | 6221 ft | 262 kts | 82° |
| 2026-05-06 11:03 | 55.35986 | 49.34928 | 5808 ft | 254 kts | 55° |
| 2026-05-06 11:03 | 55.37182 | 49.37102 | 5391 ft | 244 kts | 33° |
| 2026-05-06 11:03 | 55.38532 | 49.38838 | 4995 ft | 238 kts | 34° |
| 2026-05-06 11:04 | 55.39851 | 49.40553 | 4617 ft | 234 kts | 34° |
| 2026-05-06 11:04 | 55.41141 | 49.42238 | 4323 ft | 230 kts | 34° |
| 2026-05-06 11:04 | 55.42443 | 49.43939 | 3964 ft | 236 kts | 34° |
| 2026-05-06 11:04 | 55.43790 | 49.45625 | 3732 ft | 237 kts | 32° |
| 2026-05-06 11:05 | 55.45141 | 49.47258 | 3521 ft | 234 kts | 31° |
| 2026-05-06 11:05 | 55.46474 | 49.48856 | 3326 ft | 229 kts | 32° |
| 2026-05-06 11:05 | 55.47833 | 49.50135 | 3291 ft | 212 kts | 15° |
| 2026-05-06 11:05 | 55.49237 | 49.50589 | 3239 ft | 201 kts | 357° |
| 2026-05-06 11:06 | 55.50575 | 49.50311 | 3120 ft | 192 kts | 340° |
| 2026-05-06 11:06 | 55.51758 | 49.49417 | 2966 ft | 180 kts | 324° |
| 2026-05-06 11:06 | 55.52709 | 49.48048 | 2770 ft | 173 kts | 308° |
| 2026-05-06 11:06 | 55.53418 | 49.46369 | 2571 ft | 167 kts | 302° |
| 2026-05-06 11:07 | 55.54054 | 49.44745 | 2365 ft | 155 kts | 301° |
| 2026-05-06 11:07 | 55.54642 | 49.43242 | 2167 ft | 144 kts | 301° |
| 2026-05-06 11:07 | 55.55209 | 49.41785 | 1968 ft | 145 kts | 299° |
| 2026-05-06 11:07 | 55.55767 | 49.40358 | 1789 ft | 138 kts | 300° |
| 2026-05-06 11:08 | 55.56307 | 49.38974 | 1618 ft | 135 kts | 299° |
| 2026-05-06 11:08 | 55.56840 | 49.37606 | 1432 ft | 136 kts | 300° |
| 2026-05-06 11:08 | 55.57377 | 49.36224 | 1264 ft | 138 kts | 301° |
| 2026-05-06 11:08 | 55.57931 | 49.34821 | 1066 ft | 141 kts | 302° |
| 2026-05-06 11:09 | 55.58497 | 49.33398 | 908 ft | 141 kts | 300° |
| 2026-05-06 11:09 | 55.58814 | 49.32562 | 796 ft | 144 kts | 302° |
| 2026-05-06 11:09 | 55.59122 | 49.31767 | 696 ft | 140 kts | 303° |
| 2026-05-06 11:09 | 55.59678 | 49.30330 | 506 ft | 141 kts | 301° |
| 2026-05-06 11:10 | 55.60206 | 49.28960 | 408 ft | 121 kts | 306° |
| 2026-05-06 11:10 | 55.60606 | 49.27922 | 418 ft | 78 kts | 306° |
| 2026-05-06 11:10 | 55.60863 | 49.27244 | 407 ft | 61 kts | 303° |
| 2026-05-06 11:10 | 55.60995 | 49.26910 | 411 ft | 25 kts | 305° |
| 2026-05-06 11:11 | 55.61043 | 49.26795 | 411 ft | 8 kts | 315° |
| 2026-05-06 11:11 | 55.61080 | 49.26773 | 415 ft | 4 kts | 357° |
| 2026-05-06 11:11 | 55.61118 | 49.26801 | 407 ft | 9 kts | 32° |
| 2026-05-06 11:11 | 55.61187 | 49.26897 | 413 ft | 17 kts | 37° |
| 2026-05-06 11:12 | 55.61215 | 49.27003 | 407 ft | 9 kts | 118° |
| 2026-05-06 11:12 | 55.61168 | 49.27132 | 414 ft | 16 kts | 124° |
| 2026-05-06 11:12 | 55.61093 | 49.27322 | 412 ft | 22 kts | 125° |
| 2026-05-06 11:12 | 55.60998 | 49.27567 | 413 ft | 26 kts | 124° |
| 2026-05-06 11:13 | 55.60897 | 49.27834 | 408 ft | 27 kts | 126° |
| 2026-05-06 11:13 | 55.60790 | 49.28109 | 416 ft | 28 kts | 122° |
| 2026-05-06 11:13 | 55.60677 | 49.28393 | 414 ft | 29 kts | 125° |
| 2026-05-06 11:13 | 55.60594 | 49.28709 | 416 ft | 29 kts | 97° |
| 2026-05-06 11:14 | 55.60576 | 49.28996 | 416 ft | 22 kts | 94° |
| 2026-05-06 11:14 | 55.60603 | 49.29164 | 413 ft | 14 kts | 45° |
| 2026-05-06 11:14 | 55.60676 | 49.29258 | 416 ft | 12 kts | 36° |
| 2026-05-06 11:14 | 55.60743 | 49.29342 | 413 ft | 11 kts | 31° |
| 2026-05-06 11:15 | 55.60803 | 49.29415 | 414 ft | 10 kts | 40° |
| 2026-05-06 11:15 | 55.60799 | 49.29512 | 409 ft | 8 kts | 122° |
| 2026-05-06 11:15 | 55.60770 | 49.29595 | 409 ft | 9 kts | 123° |
| 2026-05-06 11:15 | 55.60729 | 49.29699 | 408 ft | 12 kts | 124° |
| 2026-05-06 11:16 | 55.60679 | 49.29828 | 411 ft | 14 kts | 124° |
| 2026-05-06 11:16 | 55.60648 | 49.29913 | 414 ft | 6 kts | 116° |
| 2026-05-06 11:16 | 55.60653 | 49.29969 | 416 ft | 4 kts | 52° |
| 2026-05-06 11:16 | 55.60674 | 49.29994 | 413 ft | 3 kts | 36° |
| 2026-05-06 11:17 | 55.60689 | 49.30013 | 416 ft | 2 kts | 35° |
| 2026-05-06 11:17 | 55.60695 | 49.30020 | 416 ft | 0 kts | 35° |
| 2026-05-06 11:17 | 55.60696 | 49.30021 | 416 ft | 0 kts | 35° |
| 2026-05-06 11:19 | 55.60695 | 49.30020 | 416 ft | 0 kts | 34° |
| 2026-05-06 11:19 | 55.60673 | 49.30077 | 410 ft | 0 kts | 34° |
| 2026-05-06 11:32 | 55.60672 | 49.30077 | 416 ft | 0 kts | 34° |